createdAt,value
2018-09-26T00:00:50.105Z,0
2018-09-26T00:01:58.739Z,0
2018-09-26T00:03:07.381Z,0
2018-09-26T00:04:16.024Z,0
2018-09-26T00:05:24.662Z,0
2018-09-26T00:06:33.300Z,0
2018-09-26T00:07:42.197Z,0
2018-09-26T00:08:50.848Z,0
2018-09-26T00:09:59.746Z,0
2018-09-26T00:11:08.649Z,0
2018-09-26T00:12:17.553Z,0
2018-09-26T00:13:26.199Z,0
2018-09-26T00:14:35.101Z,0
2018-09-26T00:15:44.006Z,0
2018-09-26T00:16:52.900Z,0
2018-09-26T00:18:01.802Z,0
2018-09-26T00:19:10.444Z,0
2018-09-26T00:20:19.081Z,0
2018-09-26T00:21:27.718Z,0
2018-09-26T00:22:37.298Z,0
2018-09-26T00:23:46.207Z,0
2018-09-26T00:24:54.845Z,0
2018-09-26T00:26:03.750Z,0
2018-09-26T00:27:12.391Z,0
2018-09-26T00:28:21.025Z,0
2018-09-26T00:29:29.667Z,0
2018-09-26T00:30:38.301Z,0
2018-09-26T00:31:46.948Z,0
2018-09-26T00:32:55.847Z,0
2018-09-26T00:34:04.488Z,0
2018-09-26T00:35:13.124Z,0
2018-09-26T00:36:22.242Z,0
2018-09-26T00:37:30.882Z,0
2018-09-26T00:38:39.526Z,0
2018-09-26T00:39:48.157Z,0
2018-09-26T00:40:56.795Z,0
2018-09-26T00:42:05.439Z,0
2018-09-26T00:43:14.337Z,0
2018-09-26T00:44:22.976Z,0
2018-09-26T00:45:31.879Z,0
2018-09-26T00:46:40.526Z,0
2018-09-26T00:47:49.163Z,0
2018-09-26T00:48:57.804Z,0
2018-09-26T00:50:06.439Z,0
2018-09-26T00:51:15.083Z,0
2018-09-26T00:52:23.720Z,0
2018-09-26T00:53:32.620Z,0
2018-09-26T00:54:41.261Z,0
2018-09-26T00:55:49.896Z,0
2018-09-26T00:56:58.534Z,0
2018-09-26T00:58:07.174Z,0
2018-09-26T00:59:16.083Z,0
2018-09-26T01:00:24.716Z,0
2018-09-26T01:01:33.358Z,0
2018-09-26T01:02:41.992Z,0
2018-09-26T01:03:50.897Z,0
2018-09-26T01:04:59.532Z,0
2018-09-26T01:06:08.174Z,0
2018-09-26T01:07:16.810Z,0
2018-09-26T01:08:25.715Z,0
2018-09-26T01:09:34.351Z,0
2018-09-26T01:10:42.989Z,0
2018-09-26T01:11:51.628Z,0
2018-09-26T01:13:00.529Z,0
2018-09-26T01:14:09.171Z,0
2018-09-26T01:15:17.812Z,0
2018-09-26T01:16:26.448Z,0
2018-09-26T01:17:35.083Z,0
2018-09-26T01:18:43.725Z,0
2018-09-26T01:19:52.364Z,0
2018-09-26T01:21:01.004Z,0
2018-09-26T01:22:09.902Z,0
2018-09-26T01:23:18.812Z,0
2018-09-26T01:24:27.444Z,0
2018-09-26T01:25:36.089Z,0
2018-09-26T01:26:44.983Z,0
2018-09-26T01:27:53.892Z,0
2018-09-26T01:29:02.536Z,0
2018-09-26T01:30:11.443Z,0
2018-09-26T01:31:20.083Z,0
2018-09-26T01:32:28.710Z,0
2018-09-26T01:33:37.355Z,0
2018-09-26T01:34:45.989Z,0
2018-09-26T01:35:54.637Z,0
2018-09-26T01:37:03.265Z,0
2018-09-26T01:38:12.178Z,0
2018-09-26T01:39:20.813Z,0
2018-09-26T01:40:29.461Z,0
2018-09-26T01:41:38.092Z,0
2018-09-26T01:42:46.733Z,0
2018-09-26T01:43:55.371Z,0
2018-09-26T01:45:04.284Z,0
2018-09-26T01:46:12.920Z,0
2018-09-26T01:47:21.554Z,0
2018-09-26T01:48:30.191Z,0
2018-09-26T01:49:38.829Z,0
2018-09-26T01:50:47.743Z,0
2018-09-26T01:51:56.637Z,0
2018-09-26T01:53:05.282Z,0
2018-09-26T01:54:13.911Z,0
2018-09-26T01:55:22.564Z,0
2018-09-26T01:56:31.462Z,0
2018-09-26T01:57:40.105Z,0
2018-09-26T01:58:48.734Z,0
2018-09-26T01:59:57.381Z,0
2018-09-26T02:01:06.018Z,0
2018-09-26T02:02:14.660Z,0
2018-09-26T02:03:23.287Z,0
2018-09-26T02:04:31.930Z,0
2018-09-26T02:05:40.833Z,0
2018-09-26T02:06:49.472Z,0
2018-09-26T02:07:58.113Z,0
2018-09-26T02:09:06.741Z,0
2018-09-26T02:10:15.384Z,0
2018-09-26T02:11:24.018Z,0
2018-09-26T02:12:32.932Z,0
2018-09-26T02:13:41.559Z,0
2018-09-26T02:14:50.468Z,0
2018-09-26T02:15:59.101Z,0
2018-09-26T02:17:07.751Z,0
2018-09-26T02:18:16.379Z,0
2018-09-26T02:19:25.020Z,0
2018-09-26T02:20:33.657Z,0
2018-09-26T02:21:42.831Z,0
2018-09-26T02:22:51.732Z,0
2018-09-26T02:24:00.367Z,0
2018-09-26T02:25:09.001Z,0
2018-09-26T02:26:17.899Z,0
2018-09-26T02:27:26.541Z,0
2018-09-26T02:28:35.182Z,0
2018-09-26T02:29:44.081Z,0
2018-09-26T02:30:52.722Z,0
2018-09-26T02:32:01.368Z,0
2018-09-26T02:33:10.545Z,0
2018-09-26T02:34:19.184Z,0
2018-09-26T02:35:27.827Z,0
2018-09-26T02:36:36.475Z,0
2018-09-26T02:37:45.112Z,0
2018-09-26T02:38:53.759Z,0
2018-09-26T02:40:02.677Z,0
2018-09-26T02:41:11.319Z,0
2018-09-26T02:42:19.958Z,0
2018-09-26T02:43:28.875Z,0
2018-09-26T02:44:37.517Z,0
2018-09-26T02:45:46.149Z,0
2018-09-26T02:46:54.785Z,0
2018-09-26T02:48:03.423Z,0
2018-09-26T02:49:12.067Z,0
2018-09-26T02:50:20.709Z,0
2018-09-26T02:51:29.350Z,0
2018-09-26T02:52:37.988Z,0
2018-09-26T02:53:46.632Z,0
2018-09-26T02:54:55.579Z,0
2018-09-26T02:56:04.221Z,0
2018-09-26T02:57:12.858Z,0
2018-09-26T02:58:21.810Z,0
2018-09-26T02:59:30.440Z,0
2018-09-26T03:00:39.079Z,0
2018-09-26T03:01:47.718Z,0
2018-09-26T03:02:56.353Z,0
2018-09-26T03:04:05.257Z,0
2018-09-26T03:05:13.899Z,0
2018-09-26T03:06:22.536Z,0
2018-09-26T03:07:31.170Z,0
2018-09-26T03:08:39.811Z,0
2018-09-26T03:09:48.451Z,0
2018-09-26T03:10:57.152Z,0
2018-09-26T03:12:05.729Z,0
2018-09-26T03:13:14.901Z,0
2018-09-26T03:14:23.800Z,0
2018-09-26T03:15:32.444Z,0
2018-09-26T03:16:41.078Z,0
2018-09-26T03:17:49.721Z,0
2018-09-26T03:18:58.899Z,0
2018-09-26T03:20:07.802Z,0
2018-09-26T03:21:16.707Z,0
2018-09-26T03:22:25.343Z,0
2018-09-26T03:23:34.243Z,0
2018-09-26T03:24:43.145Z,0
2018-09-26T03:25:51.793Z,0
2018-09-26T03:27:00.436Z,0
2018-09-26T03:28:09.085Z,0
2018-09-26T03:29:17.723Z,0
2018-09-26T03:30:26.633Z,0
2018-09-26T03:31:35.262Z,0
2018-09-26T03:32:44.166Z,0
2018-09-26T03:33:52.937Z,0
2018-09-26T03:35:01.456Z,0
2018-09-26T03:36:10.096Z,0
2018-09-26T03:37:19.004Z,0
2018-09-26T03:38:27.641Z,0
2018-09-26T03:39:36.280Z,0
2018-09-26T03:40:44.928Z,0
2018-09-26T03:41:53.562Z,0
2018-09-26T03:43:02.202Z,0
2018-09-26T03:44:10.830Z,0
2018-09-26T03:45:19.479Z,0
2018-09-26T03:46:28.375Z,0
2018-09-26T03:47:37.020Z,0
2018-09-26T03:48:45.652Z,0
2018-09-26T03:49:54.563Z,0
2018-09-26T03:51:03.200Z,0
2018-09-26T03:52:12.101Z,0
2018-09-26T03:53:20.729Z,0
2018-09-26T03:54:29.370Z,0
2018-09-26T03:55:38.014Z,0
2018-09-26T03:56:46.660Z,0
2018-09-26T03:57:55.302Z,0
2018-09-26T03:59:04.203Z,0
2018-09-26T04:00:12.846Z,0
2018-09-26T04:01:21.481Z,0
2018-09-26T04:02:30.127Z,0
2018-09-26T04:03:38.761Z,0
2018-09-26T04:04:47.443Z,0
2018-09-26T04:05:56.037Z,0
2018-09-26T04:07:04.949Z,0
2018-09-26T04:08:14.112Z,0
2018-09-26T04:09:22.769Z,0
2018-09-26T04:10:31.405Z,0
2018-09-26T04:11:40.064Z,0
2018-09-26T04:12:48.813Z,0
2018-09-26T04:13:57.588Z,0
2018-09-26T04:15:06.237Z,0
2018-09-26T04:16:14.872Z,0
2018-09-26T04:17:23.789Z,0
2018-09-26T04:18:32.419Z,0
2018-09-26T04:19:41.066Z,0
2018-09-26T04:20:49.695Z,0
2018-09-26T04:21:58.341Z,0
2018-09-26T04:23:07.246Z,0
2018-09-26T04:24:15.880Z,0
2018-09-26T04:25:24.532Z,0
2018-09-26T04:26:33.244Z,0
2018-09-26T04:27:42.309Z,0
2018-09-26T04:28:51.616Z,0
2018-09-26T04:30:00.916Z,0
2018-09-26T04:31:09.554Z,0
2018-09-26T04:32:18.460Z,0
2018-09-26T04:33:27.247Z,0
2018-09-26T04:34:36.254Z,0
2018-09-26T04:35:45.181Z,0
2018-09-26T04:36:54.079Z,0
2018-09-26T04:38:02.722Z,0
2018-09-26T04:39:11.355Z,0
2018-09-26T04:40:20.262Z,0
2018-09-26T04:41:28.894Z,0
2018-09-26T04:42:37.536Z,0
2018-09-26T04:43:46.171Z,0
2018-09-26T04:44:54.829Z,0
2018-09-26T04:46:03.469Z,0
2018-09-26T04:47:12.639Z,0
2018-09-26T04:48:21.265Z,0
2018-09-26T04:49:29.912Z,0
2018-09-26T04:50:38.562Z,0
2018-09-26T04:51:47.199Z,0
2018-09-26T04:52:55.838Z,0
2018-09-26T04:54:04.468Z,0
2018-09-26T04:55:13.110Z,0
2018-09-26T04:56:21.743Z,0
2018-09-26T04:57:30.390Z,0
2018-09-26T04:58:39.024Z,0
2018-09-26T04:59:47.664Z,0
2018-09-26T05:00:56.296Z,0
2018-09-26T05:02:04.944Z,0
2018-09-26T05:03:13.575Z,0
2018-09-26T05:04:22.217Z,0
2018-09-26T05:05:31.124Z,0
2018-09-26T05:06:40.031Z,0
2018-09-26T05:07:48.930Z,0
2018-09-26T05:08:57.563Z,0
2018-09-26T05:10:06.462Z,0
2018-09-26T05:11:15.361Z,0
2018-09-26T05:12:24.008Z,0
2018-09-26T05:13:32.907Z,0
2018-09-26T05:14:41.939Z,0
2018-09-26T05:15:50.497Z,0
2018-09-26T05:16:59.144Z,0
2018-09-26T05:18:08.101Z,0
2018-09-26T05:19:16.740Z,0
2018-09-26T05:20:25.638Z,0
2018-09-26T05:21:34.279Z,0
2018-09-26T05:22:42.919Z,0
2018-09-26T05:23:51.557Z,0
2018-09-26T05:25:00.190Z,0
2018-09-26T05:26:08.836Z,0
2018-09-26T05:27:17.476Z,5
2018-09-26T05:28:26.377Z,5
2018-09-26T05:29:35.019Z,5
2018-09-26T05:30:43.653Z,5
2018-09-26T05:31:52.291Z,5
2018-09-26T05:33:00.935Z,5
2018-09-26T05:34:09.575Z,10
2018-09-26T05:35:18.470Z,10
2018-09-26T05:36:27.382Z,10
2018-09-26T05:37:36.023Z,10
2018-09-26T05:38:44.663Z,10
2018-09-26T05:39:53.297Z,10
2018-09-26T05:41:01.936Z,10
2018-09-26T05:42:10.578Z,15
2018-09-26T05:43:19.481Z,15
2018-09-26T05:44:28.120Z,15
2018-09-26T05:45:36.759Z,15
2018-09-26T05:46:45.397Z,15
2018-09-26T05:47:54.034Z,20
2018-09-26T05:49:02.677Z,20
2018-09-26T05:50:11.370Z,20
2018-09-26T05:51:20.214Z,20
2018-09-26T05:52:29.118Z,25
2018-09-26T05:53:38.131Z,25
2018-09-26T05:54:46.915Z,25
2018-09-26T05:55:55.549Z,30
2018-09-26T05:57:04.183Z,30
2018-09-26T05:58:12.827Z,30
2018-09-26T05:59:21.463Z,35
2018-09-26T06:00:30.112Z,35
2018-09-26T06:01:39.013Z,35
2018-09-26T06:02:47.920Z,35
2018-09-26T06:03:56.562Z,40
2018-09-26T06:05:05.214Z,40
2018-09-26T06:06:13.854Z,40
2018-09-26T06:07:22.490Z,45
2018-09-26T06:08:31.128Z,45
2018-09-26T06:09:39.767Z,45
2018-09-26T06:10:48.416Z,45
2018-09-26T06:11:57.052Z,45
2018-09-26T06:13:05.772Z,50
2018-09-26T06:14:14.595Z,50
2018-09-26T06:15:23.504Z,50
2018-09-26T06:16:32.141Z,55
2018-09-26T06:17:40.784Z,55
2018-09-26T06:18:49.422Z,55
2018-09-26T06:19:58.324Z,55
2018-09-26T06:21:06.960Z,60
2018-09-26T06:22:15.600Z,60
2018-09-26T06:23:24.236Z,60
2018-09-26T06:24:33.177Z,65
2018-09-26T06:25:41.802Z,65
2018-09-26T06:26:50.438Z,65
2018-09-26T06:27:59.076Z,65
2018-09-26T06:29:07.704Z,70
2018-09-26T06:30:16.348Z,70
2018-09-26T06:31:24.988Z,70
2018-09-26T06:32:33.627Z,70
2018-09-26T06:33:42.275Z,70
2018-09-26T06:34:51.012Z,75
2018-09-26T06:36:00.193Z,75
2018-09-26T06:37:09.100Z,75
2018-09-26T06:38:17.744Z,75
2018-09-26T06:39:26.389Z,80
2018-09-26T06:40:35.458Z,80
2018-09-26T06:41:44.050Z,80
2018-09-26T06:42:52.694Z,80
2018-09-26T06:44:01.593Z,80
2018-09-26T06:45:10.242Z,80
2018-09-26T06:46:19.146Z,80
2018-09-26T06:47:27.797Z,85
2018-09-26T06:48:36.756Z,85
2018-09-26T06:49:45.680Z,85
2018-09-26T06:50:54.318Z,90
2018-09-26T06:52:02.968Z,90
2018-09-26T06:53:11.606Z,90
2018-09-26T06:54:20.247Z,90
2018-09-26T06:55:28.885Z,95
2018-09-26T06:56:37.528Z,95
2018-09-26T06:57:46.169Z,100
2018-09-26T06:58:54.812Z,100
2018-09-26T07:00:03.740Z,100
2018-09-26T07:01:12.347Z,105
2018-09-26T07:02:21.257Z,105
2018-09-26T07:03:29.898Z,105
2018-09-26T07:04:38.811Z,105
2018-09-26T07:05:47.445Z,110
2018-09-26T07:06:56.092Z,110
2018-09-26T07:08:04.990Z,110
2018-09-26T07:09:13.632Z,110
2018-09-26T07:10:22.266Z,115
2018-09-26T07:11:30.914Z,115
2018-09-26T07:12:39.550Z,115
2018-09-26T07:13:48.189Z,120
2018-09-26T07:14:56.824Z,120
2018-09-26T07:16:05.467Z,120
2018-09-26T07:17:14.106Z,125
2018-09-26T07:18:22.751Z,125
2018-09-26T07:19:31.661Z,125
2018-09-26T07:20:40.292Z,125
2018-09-26T07:21:49.953Z,130
2018-09-26T07:22:58.849Z,135
2018-09-26T07:24:08.458Z,130
2018-09-26T07:25:16.965Z,130
2018-09-26T07:26:25.608Z,130
2018-09-26T07:27:34.243Z,130
2018-09-26T07:28:43.009Z,130
2018-09-26T07:29:51.526Z,130
2018-09-26T07:31:00.166Z,130
2018-09-26T07:32:09.139Z,130
2018-09-26T07:33:17.735Z,130
2018-09-26T07:34:26.373Z,135
2018-09-26T07:35:35.009Z,135
2018-09-26T07:36:43.918Z,135
2018-09-26T07:37:52.827Z,135
2018-09-26T07:39:01.474Z,135
2018-09-26T07:40:10.108Z,140
2018-09-26T07:41:18.753Z,140
2018-09-26T07:42:27.383Z,140
2018-09-26T07:43:36.033Z,145
2018-09-26T07:44:44.931Z,145
2018-09-26T07:45:53.678Z,145
2018-09-26T07:47:02.219Z,145
2018-09-26T07:48:11.133Z,150
2018-09-26T07:49:19.773Z,150
2018-09-26T07:50:28.416Z,150
2018-09-26T07:51:37.309Z,155
2018-09-26T07:52:45.951Z,155
2018-09-26T07:53:54.598Z,155
2018-09-26T07:55:03.519Z,155
2018-09-26T07:56:12.425Z,160
2018-09-26T07:57:21.062Z,160
2018-09-26T07:58:29.704Z,160
2018-09-26T07:59:38.606Z,160
2018-09-26T08:00:47.260Z,160
2018-09-26T08:01:55.888Z,160
2018-09-26T08:03:04.534Z,160
2018-09-26T08:04:13.431Z,160
2018-09-26T08:05:22.083Z,160
2018-09-26T08:06:30.714Z,165
2018-09-26T08:07:39.620Z,165
2018-09-26T08:08:48.521Z,165
2018-09-26T08:09:57.170Z,165
2018-09-26T08:11:05.815Z,165
2018-09-26T08:12:14.721Z,165
2018-09-26T08:13:23.357Z,165
2018-09-26T08:14:31.999Z,165
2018-09-26T08:15:40.912Z,165
2018-09-26T08:16:49.543Z,160
2018-09-26T08:17:58.176Z,160
2018-09-26T08:19:06.828Z,160
2018-09-26T08:20:15.461Z,160
2018-09-26T08:21:24.376Z,160
2018-09-26T08:22:33.012Z,160
2018-09-26T08:23:42.040Z,160
2018-09-26T08:24:50.583Z,165
2018-09-26T08:25:59.224Z,170
2018-09-26T08:27:08.317Z,170
2018-09-26T08:28:17.236Z,165
2018-09-26T08:29:25.876Z,170
2018-09-26T08:30:34.512Z,170
2018-09-26T08:31:43.155Z,170
2018-09-26T08:32:51.791Z,170
2018-09-26T08:34:00.444Z,175
2018-09-26T08:35:09.081Z,175
2018-09-26T08:36:17.724Z,175
2018-09-26T08:37:26.356Z,175
2018-09-26T08:38:35.271Z,180
2018-09-26T08:39:43.908Z,180
2018-09-26T08:40:52.824Z,185
2018-09-26T08:42:01.460Z,190
2018-09-26T08:43:10.109Z,190
2018-09-26T08:44:18.749Z,190
2018-09-26T08:45:27.387Z,190
2018-09-26T08:46:36.019Z,200
2018-09-26T08:47:44.926Z,200
2018-09-26T08:48:53.570Z,205
2018-09-26T08:50:02.218Z,205
2018-09-26T08:51:11.125Z,205
2018-09-26T08:52:19.756Z,200
2018-09-26T08:53:28.401Z,200
2018-09-26T08:54:37.049Z,200
2018-09-26T08:55:45.695Z,195
2018-09-26T08:56:54.329Z,195
2018-09-26T08:58:02.975Z,195
2018-09-26T08:59:11.611Z,195
2018-09-26T09:00:20.534Z,190
2018-09-26T09:01:29.427Z,195
2018-09-26T09:02:38.073Z,195
2018-09-26T09:03:46.712Z,190
2018-09-26T09:04:55.634Z,185
2018-09-26T09:06:04.292Z,185
2018-09-26T09:07:12.915Z,190
2018-09-26T09:08:21.555Z,190
2018-09-26T09:09:30.195Z,190
2018-09-26T09:10:39.110Z,190
2018-09-26T09:11:47.859Z,195
2018-09-26T09:12:56.406Z,195
2018-09-26T09:14:05.304Z,190
2018-09-26T09:15:13.960Z,195
2018-09-26T09:16:22.608Z,195
2018-09-26T09:17:31.248Z,195
2018-09-26T09:18:39.886Z,195
2018-09-26T09:19:48.531Z,200
2018-09-26T09:20:57.172Z,200
2018-09-26T09:22:06.081Z,200
2018-09-26T09:23:14.988Z,200
2018-09-26T09:24:23.634Z,205
2018-09-26T09:25:32.285Z,205
2018-09-26T09:26:40.932Z,210
2018-09-26T09:27:49.967Z,205
2018-09-26T09:28:58.869Z,210
2018-09-26T09:30:07.512Z,200
2018-09-26T09:31:16.153Z,205
2018-09-26T09:32:25.285Z,205
2018-09-26T09:33:34.060Z,190
2018-09-26T09:34:42.701Z,190
2018-09-26T09:35:51.353Z,185
2018-09-26T09:36:59.990Z,190
2018-09-26T09:38:08.668Z,185
2018-09-26T09:39:17.297Z,195
2018-09-26T09:40:25.944Z,185
2018-09-26T09:41:34.587Z,185
2018-09-26T09:42:43.492Z,185
2018-09-26T09:43:52.151Z,195
2018-09-26T09:45:00.777Z,190
2018-09-26T09:46:09.417Z,190
2018-09-26T09:47:18.064Z,185
2018-09-26T09:48:26.706Z,190
2018-09-26T09:49:35.618Z,190
2018-09-26T09:50:44.256Z,190
2018-09-26T09:51:52.903Z,190
2018-09-26T09:53:01.836Z,195
2018-09-26T09:54:10.479Z,195
2018-09-26T09:55:19.114Z,195
2018-09-26T09:56:27.835Z,195
2018-09-26T09:57:36.744Z,195
2018-09-26T09:58:45.401Z,195
2018-09-26T09:59:54.039Z,195
2018-09-26T10:01:03.215Z,200
2018-09-26T10:02:11.875Z,200
2018-09-26T10:03:20.504Z,205
2018-09-26T10:04:29.144Z,205
2018-09-26T10:05:37.783Z,205
2018-09-26T10:06:46.425Z,205
2018-09-26T10:07:55.344Z,200
2018-09-26T10:09:03.992Z,205
2018-09-26T10:10:12.633Z,200
2018-09-26T10:11:21.338Z,200
2018-09-26T10:12:30.007Z,200
2018-09-26T10:13:38.658Z,195
2018-09-26T10:14:47.288Z,195
2018-09-26T10:15:55.935Z,195
2018-09-26T10:17:04.575Z,195
2018-09-26T10:18:13.227Z,195
2018-09-26T10:19:21.867Z,200
2018-09-26T10:20:30.909Z,195
2018-09-26T10:21:39.812Z,195
2018-09-26T10:22:48.452Z,195
2018-09-26T10:23:57.105Z,195
2018-09-26T10:25:05.774Z,200
2018-09-26T10:26:14.486Z,195
2018-09-26T10:27:23.437Z,200
2018-09-26T10:28:32.357Z,200
2018-09-26T10:29:41.266Z,200
2018-09-26T10:30:50.185Z,200
2018-09-26T10:31:58.814Z,200
2018-09-26T10:33:07.733Z,200
2018-09-26T10:34:16.373Z,195
2018-09-26T10:35:25.027Z,195
2018-09-26T10:36:33.660Z,190
2018-09-26T10:37:42.307Z,180
2018-09-26T10:38:50.953Z,185
2018-09-26T10:39:59.598Z,185
2018-09-26T10:41:08.249Z,180
2018-09-26T10:42:17.145Z,180
2018-09-26T10:43:25.795Z,180
2018-09-26T10:44:34.713Z,175
2018-09-26T10:45:43.367Z,165
2018-09-26T10:46:52.002Z,160
2018-09-26T10:48:00.647Z,165
2018-09-26T10:49:09.287Z,160
2018-09-26T10:50:17.991Z,165
2018-09-26T10:51:26.839Z,160
2018-09-26T10:52:35.752Z,155
2018-09-26T10:53:44.393Z,160
2018-09-26T10:54:53.302Z,165
2018-09-26T10:56:01.945Z,165
2018-09-26T10:57:10.582Z,170
2018-09-26T10:58:19.224Z,165
2018-09-26T10:59:27.864Z,165
2018-09-26T11:00:36.516Z,165
2018-09-26T11:01:45.154Z,165
2018-09-26T11:02:53.801Z,160
2018-09-26T11:04:02.434Z,160
2018-09-26T11:05:11.352Z,165
2018-09-26T11:06:19.993Z,170
2018-09-26T11:07:28.638Z,170
2018-09-26T11:08:37.536Z,175
2018-09-26T11:09:46.187Z,180
2018-09-26T11:10:54.830Z,180
2018-09-26T11:12:03.473Z,185
2018-09-26T11:13:12.112Z,180
2018-09-26T11:14:20.826Z,180
2018-09-26T11:15:29.407Z,165
2018-09-26T11:16:38.050Z,160
2018-09-26T11:17:47.003Z,180
2018-09-26T11:18:55.731Z,180
2018-09-26T11:20:04.593Z,180
2018-09-26T11:21:13.256Z,175
2018-09-26T11:22:21.946Z,175
2018-09-26T11:23:30.506Z,175
2018-09-26T11:24:39.149Z,180
2018-09-26T11:25:47.793Z,185
2018-09-26T11:26:56.443Z,180
2018-09-26T11:28:05.097Z,180
2018-09-26T11:29:13.995Z,175
2018-09-26T11:30:22.635Z,175
2018-09-26T11:31:31.283Z,170
2018-09-26T11:32:39.925Z,165
2018-09-26T11:33:48.651Z,175
2018-09-26T11:34:57.356Z,175
2018-09-26T11:36:06.367Z,170
2018-09-26T11:37:15.283Z,170
2018-09-26T11:38:24.426Z,165
2018-09-26T11:39:33.001Z,165
2018-09-26T11:40:41.640Z,160
2018-09-26T11:41:50.553Z,160
2018-09-26T11:42:59.199Z,160
2018-09-26T11:44:08.665Z,155
2018-09-26T11:45:17.886Z,150
2018-09-26T11:46:26.656Z,150
2018-09-26T11:47:35.178Z,150
2018-09-26T11:48:43.823Z,145
2018-09-26T11:49:52.459Z,145
2018-09-26T11:51:01.113Z,150
2018-09-26T11:52:09.828Z,145
2018-09-26T11:53:18.395Z,150
2018-09-26T11:54:27.045Z,150
2018-09-26T11:55:35.951Z,150
2018-09-26T11:56:44.873Z,155
2018-09-26T11:57:53.518Z,160
2018-09-26T11:59:02.171Z,155
2018-09-26T12:00:11.073Z,165
2018-09-26T12:01:19.719Z,165
2018-09-26T12:02:28.871Z,170
2018-09-26T12:03:37.702Z,170
2018-09-26T12:04:46.346Z,165
2018-09-26T12:05:55.276Z,160
2018-09-26T12:07:03.965Z,165
2018-09-26T12:08:12.607Z,160
2018-09-26T12:09:21.522Z,170
2018-09-26T12:10:30.580Z,165
2018-09-26T12:11:39.221Z,155
2018-09-26T12:12:47.869Z,155
2018-09-26T12:13:56.938Z,155
2018-09-26T12:15:05.495Z,150
2018-09-26T12:16:14.211Z,150
2018-09-26T12:17:22.794Z,155
2018-09-26T12:18:31.865Z,160
2018-09-26T12:19:41.048Z,160
2018-09-26T12:20:50.082Z,160
2018-09-26T12:21:59.133Z,165
2018-09-26T12:23:07.710Z,165
2018-09-26T12:24:16.728Z,160
2018-09-26T12:25:25.437Z,160
2018-09-26T12:26:34.257Z,160
2018-09-26T12:27:42.969Z,165
2018-09-26T12:28:51.600Z,160
2018-09-26T12:30:00.242Z,160
2018-09-26T12:31:09.185Z,155
2018-09-26T12:32:17.843Z,160
2018-09-26T12:33:26.487Z,160
2018-09-26T12:34:35.145Z,160
2018-09-26T12:35:43.775Z,165
2018-09-26T12:36:52.688Z,165
2018-09-26T12:38:01.330Z,160
2018-09-26T12:39:09.988Z,160
2018-09-26T12:40:19.009Z,165
2018-09-26T12:41:27.638Z,170
2018-09-26T12:42:36.592Z,170
2018-09-26T12:43:45.182Z,170
2018-09-26T12:44:53.825Z,170
2018-09-26T12:46:02.741Z,170
2018-09-26T12:47:11.415Z,165
2018-09-26T12:48:20.717Z,170
2018-09-26T12:49:29.345Z,175
2018-09-26T12:50:38.053Z,180
2018-09-26T12:51:46.705Z,185
2018-09-26T12:52:55.342Z,185
2018-09-26T12:54:04.341Z,190
2018-09-26T12:55:13.125Z,190
2018-09-26T12:56:22.034Z,190
2018-09-26T12:57:30.941Z,190
2018-09-26T12:58:39.590Z,195
2018-09-26T12:59:48.296Z,190
2018-09-26T13:00:57.206Z,190
2018-09-26T13:02:05.856Z,180
2018-09-26T13:03:14.502Z,180
2018-09-26T13:04:23.231Z,175
2018-09-26T13:05:31.792Z,175
2018-09-26T13:06:40.434Z,175
2018-09-26T13:07:49.340Z,175
2018-09-26T13:08:57.990Z,170
2018-09-26T13:10:06.643Z,165
2018-09-26T13:11:15.286Z,155
2018-09-26T13:12:23.983Z,155
2018-09-26T13:13:32.578Z,150
2018-09-26T13:14:41.223Z,150
2018-09-26T13:15:50.140Z,145
2018-09-26T13:16:58.776Z,130
2018-09-26T13:18:07.715Z,125
2018-09-26T13:19:16.339Z,125
2018-09-26T13:20:25.124Z,130
2018-09-26T13:21:34.319Z,125
2018-09-26T13:22:42.966Z,130
2018-09-26T13:23:51.620Z,130
2018-09-26T13:25:00.266Z,130
2018-09-26T13:26:09.225Z,125
2018-09-26T13:27:17.825Z,125
2018-09-26T13:28:26.503Z,120
2018-09-26T13:29:35.118Z,120
2018-09-26T13:30:43.775Z,125
2018-09-26T13:31:52.412Z,120
2018-09-26T13:33:01.329Z,125
2018-09-26T13:34:10.030Z,130
2018-09-26T13:35:18.629Z,135
2018-09-26T13:36:27.315Z,125
2018-09-26T13:37:36.181Z,130
2018-09-26T13:38:44.825Z,135
2018-09-26T13:39:53.477Z,135
2018-09-26T13:41:02.120Z,135
2018-09-26T13:42:11.263Z,130
2018-09-26T13:43:20.176Z,130
2018-09-26T13:44:29.573Z,130
2018-09-26T13:45:38.240Z,130
2018-09-26T13:46:46.924Z,130
2018-09-26T13:47:55.511Z,130
2018-09-26T13:49:04.419Z,130
2018-09-26T13:50:13.117Z,130
2018-09-26T13:51:21.716Z,130
2018-09-26T13:52:30.365Z,140
2018-09-26T13:53:39.003Z,135
2018-09-26T13:54:47.658Z,135
2018-09-26T13:55:56.565Z,135
2018-09-26T13:57:05.743Z,135
2018-09-26T13:58:14.384Z,135
2018-09-26T13:59:23.025Z,140
2018-09-26T14:00:31.678Z,135
2018-09-26T14:01:40.386Z,135
2018-09-26T14:02:48.971Z,140
2018-09-26T14:03:57.613Z,145
2018-09-26T14:05:06.263Z,140
2018-09-26T14:06:14.903Z,140
2018-09-26T14:07:23.822Z,140
2018-09-26T14:08:32.545Z,140
2018-09-26T14:09:41.111Z,140
2018-09-26T14:10:49.759Z,145
2018-09-26T14:11:58.400Z,140
2018-09-26T14:13:07.050Z,135
2018-09-26T14:14:16.028Z,135
2018-09-26T14:15:24.902Z,135
2018-09-26T14:16:34.071Z,135
2018-09-26T14:17:42.718Z,135
2018-09-26T14:18:51.366Z,135
2018-09-26T14:20:00.014Z,135
2018-09-26T14:21:08.661Z,135
2018-09-26T14:22:17.366Z,130
2018-09-26T14:23:26.035Z,135
2018-09-26T14:24:34.595Z,130
2018-09-26T14:25:43.244Z,130
2018-09-26T14:26:52.148Z,130
2018-09-26T14:28:00.793Z,130
2018-09-26T14:29:09.452Z,130
2018-09-26T14:30:18.449Z,130
2018-09-26T14:31:27.030Z,130
2018-09-26T14:32:35.938Z,130
2018-09-26T14:33:44.943Z,130
2018-09-26T14:34:53.918Z,130
2018-09-26T14:36:02.559Z,130
2018-09-26T14:37:11.205Z,130
2018-09-26T14:38:19.875Z,130
2018-09-26T14:39:28.604Z,125
2018-09-26T14:40:37.869Z,125
2018-09-26T14:41:47.042Z,125
2018-09-26T14:42:55.954Z,120
2018-09-26T14:44:04.866Z,120
2018-09-26T14:45:13.570Z,120
2018-09-26T14:46:22.412Z,115
2018-09-26T14:47:31.059Z,115
2018-09-26T14:48:39.704Z,115
2018-09-26T14:49:48.614Z,110
2018-09-26T14:50:57.521Z,110
2018-09-26T14:52:06.169Z,110
2018-09-26T14:53:15.164Z,105
2018-09-26T14:54:24.076Z,100
2018-09-26T14:55:32.721Z,100
2018-09-26T14:56:41.368Z,100
2018-09-26T14:57:50.014Z,100
2018-09-26T14:58:58.657Z,100
2018-09-26T15:00:07.328Z,105
2018-09-26T15:01:16.509Z,105
2018-09-26T15:02:25.263Z,100
2018-09-26T15:03:33.799Z,100
2018-09-26T15:04:42.450Z,100
2018-09-26T15:05:51.093Z,100
2018-09-26T15:06:59.747Z,100
2018-09-26T15:08:08.410Z,95
2018-09-26T15:09:17.041Z,95
2018-09-26T15:10:26.162Z,95
2018-09-26T15:11:35.148Z,90
2018-09-26T15:12:44.054Z,90
2018-09-26T15:13:52.957Z,85
2018-09-26T15:15:01.649Z,85
2018-09-26T15:16:11.212Z,85
2018-09-26T15:17:19.799Z,80
2018-09-26T15:18:28.441Z,80
2018-09-26T15:19:37.092Z,80
2018-09-26T15:20:46.205Z,80
2018-09-26T15:21:54.774Z,80
2018-09-26T15:23:03.417Z,75
2018-09-26T15:24:12.386Z,75
2018-09-26T15:25:21.515Z,75
2018-09-26T15:26:30.170Z,75
2018-09-26T15:27:38.810Z,75
2018-09-26T15:28:47.457Z,75
2018-09-26T15:29:56.093Z,75
2018-09-26T15:31:04.738Z,75
2018-09-26T15:32:13.755Z,75
2018-09-26T15:33:22.344Z,70
2018-09-26T15:34:30.997Z,70
2018-09-26T15:35:39.903Z,70
2018-09-26T15:36:48.551Z,70
2018-09-26T15:37:57.194Z,70
2018-09-26T15:39:06.114Z,70
2018-09-26T15:40:14.860Z,70
2018-09-26T15:41:23.404Z,65
2018-09-26T15:42:32.040Z,65
2018-09-26T15:43:40.695Z,65
2018-09-26T15:44:49.333Z,65
2018-09-26T15:45:57.978Z,65
2018-09-26T15:47:06.622Z,65
2018-09-26T15:48:15.427Z,60
2018-09-26T15:49:24.190Z,60
2018-09-26T15:50:32.832Z,60
2018-09-26T15:51:41.478Z,60
2018-09-26T15:52:50.379Z,60
2018-09-26T15:53:59.029Z,60
2018-09-26T15:55:07.931Z,60
2018-09-26T15:56:16.616Z,60
2018-09-26T15:57:26.008Z,60
2018-09-26T15:58:34.659Z,60
2018-09-26T15:59:43.300Z,60
2018-09-26T16:00:51.949Z,60
2018-09-26T16:02:00.590Z,60
2018-09-26T16:03:09.245Z,60
2018-09-26T16:04:18.272Z,60
2018-09-26T16:05:27.091Z,55
2018-09-26T16:06:36.006Z,55
2018-09-26T16:07:44.911Z,55
2018-09-26T16:08:53.551Z,55
2018-09-26T16:10:02.461Z,55
2018-09-26T16:11:11.101Z,55
2018-09-26T16:12:19.793Z,55
2018-09-26T16:13:28.397Z,50
2018-09-26T16:14:37.049Z,50